Time;durP1;ratioP1;P1;durP2;ratioP2;P2;SDS_P1;SDS_P2;PMS_P1;PMS_P2;Temp;Humidity;BMP_temperature;BMP_pressure;BME280_temperature;BME280_humidity;BME280_pressure;Samples;Min_cycle;Max_cycle;Signal;HPM_P1;HPM_P2
2022/11/19 00:01:42;;;;;;;;;;;8.60;95.90;;;;;;5067882;28;20516;-73
2022/11/19 00:04:07;;;;;;;;;;;8.60;95.90;;;;;;5069121;28;19912;-73
2022/11/19 00:06:33;;;;;;;;;;;8.60;95.80;;;;;;5068914;28;19934;-73
2022/11/19 00:08:58;;;;;;;;;;;8.60;95.90;;;;;;5067213;28;20494;-73
2022/11/19 00:14:11;;;;;;;;;;;8.50;95.90;;;;;;5068889;28;20415;-73
2022/11/19 00:16:37;;;;;;;;;;;8.50;95.80;;;;;;5068351;28;19908;-73
2022/11/19 00:19:02;;;;;;;;;;;8.50;95.80;;;;;;5070767;28;19986;-73
2022/11/19 00:21:28;;;;;;;;;;;8.50;95.80;;;;;;5087826;28;19993;-73
2022/11/19 00:23:54;;;;;;;;;;;8.50;95.80;;;;;;5086939;28;19912;-73
2022/11/19 00:26:19;;;;;;;;;;;8.50;95.80;;;;;;5077059;28;19955;-73
2022/11/19 00:28:45;;;;;;;;;;;8.50;95.80;;;;;;5087498;28;19989;-73
2022/11/19 00:31:11;;;;;;;;;;;8.40;95.70;;;;;;5066356;28;19920;-73
2022/11/19 00:33:37;;;;;;;;;;;8.40;95.70;;;;;;5068050;28;19942;-73
2022/11/19 00:36:04;;;;;;;;;;;8.40;95.70;;;;;;5067797;28;20366;-73
2022/11/19 00:38:30;;;;;;;;;;;8.40;95.70;;;;;;5050479;28;19916;-73
2022/11/19 00:40:55;;;;;;;;;;;8.40;95.70;;;;;;5047311;28;19928;-73
2022/11/19 00:46:05;;;;;;;;;;;8.40;95.70;;;;;;5087855;28;19981;-73
2022/11/19 00:48:31;;;;;;;;;;;8.40;95.70;;;;;;5088155;28;19912;-73
2022/11/19 00:50:56;;;;;;;;;;;8.40;95.70;;;;;;5087895;28;19912;-73
2022/11/19 00:53:22;;;;;;;;;;;8.40;95.70;;;;;;5075396;28;19917;-73
2022/11/19 00:55:47;;;;;;;;;;;8.40;95.60;;;;;;5067980;28;19912;-73
2022/11/19 00:58:13;;;;;;;;;;;8.40;95.70;;;;;;5067929;28;20520;-73
2022/11/19 01:00:38;;;;;;;;;;;8.30;95.60;;;;;;5070551;28;19927;-73
2022/11/19 01:03:04;;;;;;;;;;;8.30;95.60;;;;;;5066873;28;19938;-73
2022/11/19 01:05:29;;;;;;;;;;;8.30;95.60;;;;;;5067174;28;20006;-73
2022/11/19 01:07:55;;;;;;;;;;;8.30;95.60;;;;;;5067397;28;19913;-73
2022/11/19 01:10:20;;;;;;;;;;;8.30;95.60;;;;;;5066908;28;20359;-73
2022/11/19 01:15:30;;;;;;;;;;;8.30;95.50;;;;;;5067558;28;20023;-73
2022/11/19 01:17:55;;;;;;;;;;;8.30;95.60;;;;;;5079759;28;20550;-73
2022/11/19 01:20:21;;;;;;;;;;;8.30;95.60;;;;;;5087349;28;19923;-73
2022/11/19 01:22:46;;;;;;;;;;;8.20;95.50;;;;;;5087300;28;20321;-73
2022/11/19 01:25:13;;;;;;;;;;;8.20;95.50;;;;;;5085784;28;19912;-73
2022/11/19 01:27:38;;;;;;;;;;;8.20;95.40;;;;;;5086958;28;19918;-73
2022/11/19 01:30:04;;;;;;;;;;;8.20;95.40;;;;;;5081498;28;19917;-73
2022/11/19 01:32:30;;;;;;;;;;;8.20;95.40;;;;;;5067789;28;20602;-73
2022/11/19 01:34:55;;;;;;;;;;;8.20;95.40;;;;;;5067744;28;19916;-73
2022/11/19 01:37:21;;;;;;;;;;;8.20;95.40;;;;;;5057123;28;19913;-73
2022/11/19 01:39:46;;;;;;;;;;;8.20;95.40;;;;;;5046320;28;19909;-73
2022/11/19 01:42:48;;;;;;;;;;;8.20;95.40;;;;;;5046879;28;20281;-73
2022/11/19 01:45:04;;;;;;;;;;;8.20;95.40;;;;;;5066372;28;20483;-73
2022/11/19 01:47:29;;;;;;;;;;;8.10;95.30;;;;;;5066595;28;19950;-73
2022/11/19 01:49:55;;;;;;;;;;;8.10;95.30;;;;;;5072853;28;19951;-73
2022/11/19 01:52:21;;;;;;;;;;;8.10;95.30;;;;;;5066821;28;19912;-73
2022/11/19 01:54:49;;;;;;;;;;;8.10;95.30;;;;;;5066605;28;19909;-73
2022/11/19 01:57:15;;;;;;;;;;;8.10;95.30;;;;;;5065844;28;19909;-72
2022/11/19 01:59:42;;;;;;;;;;;8.10;95.30;;;;;;5066122;28;20015;-73
2022/11/19 02:02:07;;;;;;;;;;;8.10;95.20;;;;;;5066332;28;20598;-73
2022/11/19 02:04:34;;;;;;;;;;;8.10;95.20;;;;;;5066448;28;19995;-73
2022/11/19 02:07:00;;;;;;;;;;;8.00;95.20;;;;;;5061202;28;19916;-73
2022/11/19 02:09:26;;;;;;;;;;;8.00;95.10;;;;;;5045218;28;19966;-73
2022/11/19 02:12:10;;;;;;;;;;;8.00;95.20;;;;;;5046141;28;20380;-73
2022/11/19 02:14:44;;;;;;;;;;;8.00;95.10;;;;;;5045588;28;20445;-73
2022/11/19 02:17:24;;;;;;;;;;;8.00;95.10;;;;;;5046041;28;19979;-73
2022/11/19 02:20:09;;;;;;;;;;;8.00;95.10;;;;;;5063655;28;19923;-74
2022/11/19 02:22:54;;;;;;;;;;;8.00;95.10;;;;;;5084717;28;20361;-73
2022/11/19 02:25:38;;;;;;;;;;;8.00;95.10;;;;;;5063627;28;20007;-72
2022/11/19 02:28:09;;;;;;;;;;;8.00;95.10;;;;;;5065577;28;19913;-73
2022/11/19 02:30:40;;;;;;;;;;;8.00;95.00;;;;;;5065451;28;19958;-73
2022/11/19 02:33:19;;;;;;;;;;;7.90;95.00;;;;;;5065525;28;19920;-72
2022/11/19 02:35:56;;;;;;;;;;;7.90;95.00;;;;;;5065485;28;19978;-72
2022/11/19 02:38:31;;;;;;;;;;;7.90;95.00;;;;;;5049387;28;19970;-73
2022/11/19 02:41:32;;;;;;;;;;;7.90;95.00;;;;;;5061435;28;20650;-74
2022/11/19 02:44:57;;;;;;;;;;;7.90;94.90;;;;;;5065691;28;20417;-74
2022/11/19 02:46:37;;;;;;;;;;;7.90;95.00;;;;;;5064701;28;20709;-73
2022/11/19 02:49:02;;;;;;;;;;;7.90;94.90;;;;;;5068428;28;19916;-73
2022/11/19 02:51:28;;;;;;;;;;;7.90;94.90;;;;;;5084773;28;19916;-73
2022/11/19 02:53:56;;;;;;;;;;;7.90;95.00;;;;;;5085709;28;19916;-73
2022/11/19 02:56:40;;;;;;;;;;;7.90;94.90;;;;;;5084859;28;20030;-73
2022/11/19 03:04:34;;;;;;;;;;;7.80;94.80;;;;;;5064998;28;19919;-73
2022/11/19 03:06:59;;;;;;;;;;;7.80;94.80;;;;;;5065674;28;20487;-73
2022/11/19 03:09:25;;;;;;;;;;;7.80;94.80;;;;;;5065741;28;19916;-73
2022/11/19 03:12:26;;;;;;;;;;;7.80;94.80;;;;;;5066105;28;20288;-73
2022/11/19 03:17:53;;;;;;;;;;;7.80;94.80;;;;;;5045625;28;20032;-72
2022/11/19 03:20:25;;;;;;;;;;;7.70;94.80;;;;;;5073927;28;19916;-72
2022/11/19 03:22:53;;;;;;;;;;;7.70;94.80;;;;;;5090143;28;19916;-73
2022/11/19 03:25:25;;;;;;;;;;;7.70;94.70;;;;;;5089883;28;19917;-73
2022/11/19 03:27:52;;;;;;;;;;;7.80;94.70;;;;;;5089644;28;19912;-73
2022/11/19 03:30:19;;;;;;;;;;;7.80;94.70;;;;;;5079394;28;19949;-73
2022/11/19 03:32:53;;;;;;;;;;;7.80;94.60;;;;;;5069134;28;19908;-73
2022/11/19 03:35:20;;;;;;;;;;;7.70;94.70;;;;;;5069536;28;20053;-72
2022/11/19 03:37:49;;;;;;;;;;;7.70;94.60;;;;;;5069313;28;19913;-73
2022/11/19 03:40:15;;;;;;;;;;;7.70;94.70;;;;;;5069212;28;19909;-73
2022/11/19 03:42:42;;;;;;;;;;;7.70;94.60;;;;;;5068894;28;20805;-73
2022/11/19 03:45:10;;;;;;;;;;;7.70;94.60;;;;;;5069497;28;19918;-73
2022/11/19 03:47:38;;;;;;;;;;;7.70;94.60;;;;;;5070413;28;20312;-73
2022/11/19 03:50:15;;;;;;;;;;;7.70;94.60;;;;;;5079954;28;20012;-73
2022/11/19 03:52:41;;;;;;;;;;;7.70;94.60;;;;;;5079508;28;19923;-72
2022/11/19 03:55:07;;;;;;;;;;;7.70;94.60;;;;;;5069250;28;20273;-73
2022/11/19 03:57:33;;;;;;;;;;;7.70;94.50;;;;;;5068956;28;19913;-73
2022/11/19 03:59:58;;;;;;;;;;;7.70;94.50;;;;;;5068574;28;20364;-73
2022/11/19 04:02:24;;;;;;;;;;;7.60;94.50;;;;;;5069127;28;20671;-73
2022/11/19 04:04:49;;;;;;;;;;;7.60;94.50;;;;;;5089621;28;19912;-73
2022/11/19 04:07:17;;;;;;;;;;;7.60;94.50;;;;;;5081527;28;19999;-73
2022/11/19 04:09:43;;;;;;;;;;;7.60;94.50;;;;;;5068353;28;20411;-73
2022/11/19 04:12:16;;;;;;;;;;;7.60;94.40;;;;;;5067888;28;19924;-73
2022/11/19 04:14:42;;;;;;;;;;;7.60;94.50;;;;;;5067211;28;20382;-73
2022/11/19 04:17:07;;;;;;;;;;;7.60;94.50;;;;;;5067305;28;20041;-73
2022/11/19 04:19:33;;;;;;;;;;;7.60;94.50;;;;;;5068151;28;20436;-73
2022/11/19 04:21:58;;;;;;;;;;;7.60;94.40;;;;;;5067242;28;19920;-73
2022/11/19 04:24:24;;;;;;;;;;;7.60;94.40;;;;;;5067310;28;19912;-73
2022/11/19 04:26:49;;;;;;;;;;;7.50;94.40;;;;;;5067669;28;19936;-73
2022/11/19 04:29:15;;;;;;;;;;;7.60;94.40;;;;;;5066675;28;19920;-72
2022/11/19 04:31:41;;;;;;;;;;;7.60;94.40;;;;;;5066516;28;19959;-73
2022/11/19 04:34:06;;;;;;;;;;;7.50;94.40;;;;;;5066708;28;19912;-73
2022/11/19 04:36:32;;;;;;;;;;;7.50;94.30;;;;;;5074102;28;19947;-73
2022/11/19 04:38:57;;;;;;;;;;;7.50;94.30;;;;;;5066579;28;19917;-73
2022/11/19 04:41:23;;;;;;;;;;;7.50;94.30;;;;;;5066828;28;19920;-73
2022/11/19 04:43:48;;;;;;;;;;;7.50;94.40;;;;;;5060294;28;19924;-73
2022/11/19 04:46:14;;;;;;;;;;;7.50;94.30;;;;;;5066588;28;20007;-73
2022/11/19 04:48:39;;;;;;;;;;;7.50;94.30;;;;;;5066699;28;20354;-73
2022/11/19 04:51:05;;;;;;;;;;;7.50;94.30;;;;;;5085641;28;20576;-73
2022/11/19 04:53:30;;;;;;;;;;;7.50;94.30;;;;;;5075200;28;19917;-73
2022/11/19 04:55:56;;;;;;;;;;;7.50;94.20;;;;;;5066253;28;19959;-73
2022/11/19 04:58:21;;;;;;;;;;;7.40;94.20;;;;;;5066605;28;19908;-73
2022/11/19 05:00:47;;;;;;;;;;;7.40;94.20;;;;;;5065718;28;19958;-73
2022/11/19 05:03:12;;;;;;;;;;;7.40;94.20;;;;;;5066059;28;20420;-73
2022/11/19 05:05:38;;;;;;;;;;;7.40;94.20;;;;;;5066504;28;19917;-73
2022/11/19 05:08:03;;;;;;;;;;;7.40;94.20;;;;;;5066332;28;20551;-73
2022/11/19 05:10:29;;;;;;;;;;;7.40;94.20;;;;;;5067241;28;19919;-73
2022/11/19 05:12:54;;;;;;;;;;;7.40;94.10;;;;;;5005001;28;1764832;-72
2022/11/19 05:15:20;;;;;;;;;;;7.40;94.20;;;;;;5067357;28;19912;-73
2022/11/19 05:17:46;;;;;;;;;;;7.40;94.10;;;;;;5065160;28;20010;-73
2022/11/19 05:20:12;;;;;;;;;;;7.40;94.20;;;;;;5079060;28;19954;-73
2022/11/19 05:22:38;;;;;;;;;;;7.40;94.20;;;;;;5087612;28;20540;-73
2022/11/19 05:25:03;;;;;;;;;;;7.40;94.10;;;;;;5087372;28;19919;-73
2022/11/19 05:27:29;;;;;;;;;;;7.40;94.10;;;;;;5075520;28;19923;-73
2022/11/19 05:29:54;;;;;;;;;;;7.30;94.10;;;;;;5067308;28;19912;-73
2022/11/19 05:32:20;;;;;;;;;;;7.40;94.10;;;;;;5067853;28;19936;-73
2022/11/19 05:34:45;;;;;;;;;;;7.30;93.60;;;;;;5067072;28;20031;-73
2022/11/19 05:37:11;;;;;;;;;;;7.30;94.10;;;;;;5065652;28;19912;-73
2022/11/19 05:39:36;;;;;;;;;;;7.30;94.10;;;;;;5066666;28;19995;-73
2022/11/19 05:42:02;;;;;;;;;;;7.30;94.00;;;;;;5065933;28;20613;-73
2022/11/19 05:44:27;;;;;;;;;;;7.30;94.00;;;;;;5068177;28;20018;-73
2022/11/19 05:46:55;;;;;;;;;;;7.30;94.00;;;;;;5066795;28;20361;-73
2022/11/19 05:49:21;;;;;;;;;;;7.30;94.00;;;;;;5071058;28;19912;-73
2022/11/19 05:51:46;;;;;;;;;;;7.30;94.00;;;;;;5086519;28;20277;-72
2022/11/19 05:54:11;;;;;;;;;;;7.30;94.00;;;;;;5069200;28;19913;-72
2022/11/19 05:56:37;;;;;;;;;;;7.30;94.00;;;;;;5067053;28;19912;-72
2022/11/19 05:59:02;;;;;;;;;;;7.30;94.00;;;;;;5066900;28;19908;-73
2022/11/19 06:01:28;;;;;;;;;;;7.20;93.90;;;;;;5069086;28;19950;-72
2022/11/19 06:03:54;;;;;;;;;;;7.20;94.00;;;;;;5086621;28;19934;-73
2022/11/19 06:06:20;;;;;;;;;;;7.20;93.90;;;;;;5086849;28;19959;-73
2022/11/19 06:08:46;;;;;;;;;;;7.20;93.90;;;;;;5066617;28;20273;-73
2022/11/19 06:11:46;;;;;;;;;;;7.20;93.90;;;;;;5065891;28;20254;-73
2022/11/19 06:13:57;;;;;;;;;;;7.20;93.90;;;;;;5084904;28;19912;-72
2022/11/19 06:16:22;;;;;;;;;;;7.20;93.90;;;;;;5086630;28;19916;-73
2022/11/19 06:18:48;;;;;;;;;;;7.20;93.90;;;;;;5087095;28;20390;-72
2022/11/19 06:21:13;;;;;;;;;;;7.20;93.90;;;;;;5086272;28;19919;-73
2022/11/19 06:23:39;;;;;;;;;;;7.20;93.80;;;;;;5085880;28;19912;-73
2022/11/19 06:26:06;;;;;;;;;;;7.20;93.90;;;;;;5085543;28;20502;-73
2022/11/19 06:28:31;;;;;;;;;;;7.10;93.70;;;;;;5086070;28;20002;-73
2022/11/19 06:30:57;;;;;;;;;;;7.20;93.80;;;;;;5066116;28;20015;-73
2022/11/19 06:33:22;;;;;;;;;;;7.10;93.70;;;;;;5065297;28;19980;-72
2022/11/19 06:35:48;;;;;;;;;;;7.10;93.70;;;;;;5065752;28;19916;-73
2022/11/19 06:38:13;;;;;;;;;;;7.10;93.70;;;;;;5065144;28;19924;-72
2022/11/19 06:40:39;;;;;;;;;;;7.10;93.70;;;;;;5065383;28;19912;-73
2022/11/19 06:43:04;;;;;;;;;;;7.10;93.60;;;;;;5071024;28;19915;-73
2022/11/19 06:45:29;;;;;;;;;;;7.10;93.70;;;;;;5085883;28;19985;-73
2022/11/19 06:47:55;;;;;;;;;;;7.10;93.60;;;;;;5085978;28;19957;-73
2022/11/19 06:50:20;;;;;;;;;;;7.10;93.70;;;;;;5084963;28;20500;-73
2022/11/19 06:52:46;;;;;;;;;;;7.10;93.60;;;;;;5086088;28;19912;-73
2022/11/19 06:55:12;;;;;;;;;;;7.10;93.60;;;;;;5086130;28;19916;-73
2022/11/19 06:57:37;;;;;;;;;;;7.10;93.60;;;;;;5085630;28;19908;-72
2022/11/19 07:00:03;;;;;;;;;;;7.10;93.60;;;;;;5076753;28;20364;-73
2022/11/19 07:02:29;;;;;;;;;;;7.10;93.60;;;;;;5060004;28;19952;-73
2022/11/19 07:04:54;;;;;;;;;;;7.10;93.60;;;;;;5065221;28;19920;-73
2022/11/19 07:07:20;;;;;;;;;;;7.00;93.50;;;;;;5057714;28;19919;-72
2022/11/19 07:09:45;;;;;;;;;;;7.00;93.50;;;;;;5043669;28;19944;-72
2022/11/19 07:12:11;;;;;;;;;;;7.10;93.50;;;;;;5045254;28;19921;-72
2022/11/19 07:14:36;;;;;;;;;;;7.00;93.50;;;;;;5045502;28;19909;-73
2022/11/19 07:17:02;;;;;;;;;;;7.00;93.50;;;;;;5061182;28;19916;-73
2022/11/19 07:19:28;;;;;;;;;;;7.00;93.50;;;;;;5067765;28;19917;-72
2022/11/19 07:21:53;;;;;;;;;;;7.00;93.50;;;;;;5064687;28;19916;-73
2022/11/19 07:24:19;;;;;;;;;;;7.00;93.50;;;;;;5064959;28;20729;-72
2022/11/19 07:26:44;;;;;;;;;;;7.00;93.50;;;;;;5062859;28;20015;-73
2022/11/19 07:29:11;;;;;;;;;;;7.00;93.40;;;;;;5065495;28;20361;-73
2022/11/19 07:31:36;;;;;;;;;;;7.00;93.40;;;;;;5063206;28;19919;-72
2022/11/19 07:34:05;;;;;;;;;;;7.00;93.30;;;;;;5064582;28;19909;-73
2022/11/19 07:36:30;;;;;;;;;;;7.00;93.40;;;;;;5064624;28;19947;-72
2022/11/19 07:38:56;;;;;;;;;;;7.00;93.30;;;;;;5064469;28;20047;-73
2022/11/19 07:44:05;;;;;;;;;;;6.90;93.30;;;;;;5063421;28;20649;-73
2022/11/19 07:46:31;;;;;;;;;;;7.00;93.30;;;;;;5065326;28;19913;-73
2022/11/19 07:48:57;;;;;;;;;;;6.90;93.30;;;;;;5066455;28;19966;-72
2022/11/19 07:51:23;;;;;;;;;;;6.90;93.20;;;;;;5085139;28;19912;-73
2022/11/19 07:53:48;;;;;;;;;;;6.90;93.20;;;;;;5085705;28;20116;-72
2022/11/19 07:56:14;;;;;;;;;;;7.00;93.30;;;;;;5085494;28;20360;-73
2022/11/19 07:58:39;;;;;;;;;;;6.90;93.20;;;;;;5085263;28;20317;-73
2022/11/19 08:01:09;;;;;;;;;;;6.90;93.10;;;;;;5068080;28;19923;-72
2022/11/19 08:03:34;;;;;;;;;;;7.00;93.10;;;;;;5065558;28;19938;-72
2022/11/19 08:06:03;;;;;;;;;;;7.00;93.20;;;;;;5066147;28;20372;-73
2022/11/19 08:08:29;;;;;;;;;;;6.90;93.20;;;;;;5064667;28;19917;-73
2022/11/19 08:10:55;;;;;;;;;;;6.90;93.40;;;;;;5067342;28;19917;-73
2022/11/19 08:13:20;;;;;;;;;;;6.90;93.10;;;;;;5067628;28;19913;-73
2022/11/19 08:15:46;;;;;;;;;;;6.90;93.00;;;;;;5085739;28;20559;-73
2022/11/19 08:18:11;;;;;;;;;;;6.90;93.10;;;;;;5088460;28;19961;-72
2022/11/19 08:20:40;;;;;;;;;;;6.90;93.10;;;;;;5087838;28;19912;-72
2022/11/19 08:23:06;;;;;;;;;;;6.90;93.10;;;;;;5088183;28;19916;-72
2022/11/19 08:25:31;;;;;;;;;;;6.90;93.10;;;;;;5088356;28;19919;-73
2022/11/19 08:27:57;;;;;;;;;;;6.90;93.00;;;;;;5087971;28;19963;-72
2022/11/19 08:30:22;;;;;;;;;;;6.90;93.00;;;;;;5079091;28;19912;-73
2022/11/19 08:32:48;;;;;;;;;;;6.90;93.00;;;;;;5070433;28;19916;-72
2022/11/19 08:35:13;;;;;;;;;;;6.90;93.00;;;;;;5067771;28;19934;-73
2022/11/19 08:37:39;;;;;;;;;;;6.80;93.00;;;;;;5057119;28;20376;-72
2022/11/19 08:40:05;;;;;;;;;;;6.90;92.90;;;;;;5047676;28;19912;-73
2022/11/19 08:45:14;;;;;;;;;;;6.90;92.90;;;;;;5067718;28;19919;-72
2022/11/19 08:47:40;;;;;;;;;;;6.90;92.90;;;;;;5071413;28;19923;-73
2022/11/19 08:50:05;;;;;;;;;;;6.90;92.90;;;;;;5087762;28;19923;-72
2022/11/19 08:52:31;;;;;;;;;;;6.90;92.90;;;;;;5088143;28;20276;-73
2022/11/19 08:54:56;;;;;;;;;;;6.90;92.90;;;;;;5088036;28;19919;-72
2022/11/19 08:57:22;;;;;;;;;;;6.90;92.80;;;;;;5087938;28;19912;-73
2022/11/19 08:59:47;;;;;;;;;;;6.90;92.80;;;;;;5083617;28;19915;-73
2022/11/19 09:02:13;;;;;;;;;;;6.90;92.80;;;;;;5067357;28;19962;-73
2022/11/19 09:04:40;;;;;;;;;;;6.80;92.80;;;;;;5068054;28;20034;-73
2022/11/19 09:07:05;;;;;;;;;;;6.80;92.80;;;;;;5061874;28;19916;-73
2022/11/19 09:09:31;;;;;;;;;;;6.90;92.70;;;;;;5047636;28;19917;-72
2022/11/19 09:11:57;;;;;;;;;;;6.80;92.70;;;;;;5047203;28;19947;-72
2022/11/19 09:14:22;;;;;;;;;;;6.90;92.70;;;;;;5047494;28;19908;-72
2022/11/19 09:16:48;;;;;;;;;;;6.80;92.80;;;;;;5045549;28;19919;-73
2022/11/19 09:19:13;;;;;;;;;;;6.80;92.70;;;;;;5054804;28;19913;-73
2022/11/19 09:21:38;;;;;;;;;;;6.80;92.80;;;;;;5079196;28;19927;-72
2022/11/19 09:24:04;;;;;;;;;;;6.80;92.70;;;;;;5067330;28;19912;-72
2022/11/19 09:26:29;;;;;;;;;;;6.80;92.70;;;;;;5067539;28;19919;-72
2022/11/19 09:28:55;;;;;;;;;;;6.90;92.70;;;;;;5067579;28;19919;-73
2022/11/19 09:31:20;;;;;;;;;;;6.80;92.60;;;;;;5067425;28;19934;-73
2022/11/19 09:33:48;;;;;;;;;;;6.80;92.50;;;;;;5067291;28;19913;-73
2022/11/19 09:36:14;;;;;;;;;;;6.80;92.60;;;;;;5067518;28;19912;-72
2022/11/19 09:38:39;;;;;;;;;;;6.80;92.60;;;;;;5078048;28;19916;-72
2022/11/19 09:41:20;;;;;;;;;;;6.80;92.60;;;;;;5066538;28;19959;-72
2022/11/19 09:43:54;;;;;;;;;;;6.80;92.60;;;;;;5064916;28;19916;-72
2022/11/19 09:46:26;;;;;;;;;;;6.80;92.60;;;;;;5064156;28;20540;-72
2022/11/19 09:48:54;;;;;;;;;;;6.80;92.50;;;;;;5067769;28;19912;-72
2022/11/19 09:51:27;;;;;;;;;;;6.80;92.40;;;;;;5087237;28;19912;-73
2022/11/19 09:54:04;;;;;;;;;;;6.80;92.40;;;;;;5086587;28;19912;-73
2022/11/19 09:56:33;;;;;;;;;;;6.80;92.40;;;;;;5067396;28;19961;-73
2022/11/19 09:59:01;;;;;;;;;;;6.80;92.40;;;;;;5066251;28;20387;-73
2022/11/19 10:01:29;;;;;;;;;;;6.80;92.40;;;;;;5066224;28;20003;-72
2022/11/19 10:03:54;;;;;;;;;;;6.80;92.50;;;;;;5066434;28;19920;-72
2022/11/19 10:06:28;;;;;;;;;;;6.80;92.50;;;;;;5066410;28;20251;-73
2022/11/19 10:08:56;;;;;;;;;;;6.80;92.40;;;;;;5048217;28;20265;-72
2022/11/19 10:11:40;;;;;;;;;;;6.80;92.40;;;;;;5065490;28;19920;-73
2022/11/19 10:14:14;;;;;;;;;;;6.80;92.40;;;;;;5066302;28;19965;-73
2022/11/19 10:16:46;;;;;;;;;;;6.90;92.40;;;;;;5066140;28;19963;-73
2022/11/19 10:19:17;;;;;;;;;;;6.80;92.50;;;;;;5085622;28;20357;-73
2022/11/19 10:21:45;;;;;;;;;;;6.80;92.40;;;;;;5086061;28;19923;-73
2022/11/19 10:24:18;;;;;;;;;;;6.90;92.50;;;;;;5086377;28;20083;-73
2022/11/19 10:26:46;;;;;;;;;;;6.80;92.60;;;;;;5086091;28;19912;-73
2022/11/19 10:29:16;;;;;;;;;;;6.80;92.70;;;;;;5085612;28;20399;-73
2022/11/19 10:31:46;;;;;;;;;;;6.80;92.60;;;;;;5066517;28;19912;-73
2022/11/19 10:34:14;;;;;;;;;;;6.80;92.60;;;;;;5074769;28;19912;-73
2022/11/19 10:36:49;;;;;;;;;;;6.90;92.50;;;;;;5083843;28;19912;-72
2022/11/19 10:39:17;;;;;;;;;;;6.90;92.40;;;;;;5065731;28;19961;-73
2022/11/19 10:41:49;;;;;;;;;;;6.90;92.40;;;;;;5063527;28;19912;-73
2022/11/19 10:44:37;;;;;;;;;;;6.90;92.40;;;;;;5062024;28;19916;-73
2022/11/19 10:47:03;;;;;;;;;;;6.90;92.30;;;;;;5063231;28;19909;-73
2022/11/19 10:49:33;;;;;;;;;;;6.90;92.40;;;;;;5071195;28;19920;-73
2022/11/19 10:51:59;;;;;;;;;;;7.00;92.30;;;;;;5068709;28;19920;-73
2022/11/19 10:54:26;;;;;;;;;;;7.00;92.20;;;;;;5066301;28;19919;-73
2022/11/19 10:56:52;;;;;;;;;;;7.00;92.20;;;;;;5065606;28;20403;-73
2022/11/19 10:59:19;;;;;;;;;;;7.00;92.20;;;;;;5065705;28;19912;-74
2022/11/19 11:01:46;;;;;;;;;;;7.00;92.30;;;;;;5065292;28;19962;-73
2022/11/19 11:04:23;;;;;;;;;;;7.00;92.20;;;;;;5065606;28;19912;-73
2022/11/19 11:06:53;;;;;;;;;;;7.00;92.30;;;;;;5062237;28;19917;-72
2022/11/19 11:09:27;;;;;;;;;;;7.00;92.30;;;;;;5085188;28;20006;-73
2022/11/19 11:14:53;;;;;;;;;;;7.00;92.20;;;;;;5085600;28;20356;-73
2022/11/19 11:17:18;;;;;;;;;;;7.00;92.20;;;;;;5085715;28;19916;-73
2022/11/19 11:19:44;;;;;;;;;;;7.00;92.30;;;;;;5085723;28;20471;-73
2022/11/19 11:22:10;;;;;;;;;;;7.00;92.30;;;;;;5086095;28;19916;-73
2022/11/19 11:24:37;;;;;;;;;;;7.00;92.30;;;;;;5072059;28;19912;-72
2022/11/19 11:27:17;;;;;;;;;;;7.00;92.30;;;;;;5065604;28;19920;-73
2022/11/19 11:29:43;;;;;;;;;;;6.90;92.30;;;;;;5064871;28;19918;-73
2022/11/19 11:32:25;;;;;;;;;;;6.90;92.30;;;;;;5065641;28;19921;-73
2022/11/19 11:34:51;;;;;;;;;;;6.90;92.30;;;;;;5077010;28;20496;-73
2022/11/19 11:37:16;;;;;;;;;;;7.00;92.30;;;;;;5077091;28;19939;-74
2022/11/19 11:39:43;;;;;;;;;;;7.00;92.30;;;;;;5064273;28;19936;-74
2022/11/19 11:42:11;;;;;;;;;;;6.90;92.20;;;;;;5067279;28;20011;-73
2022/11/19 11:44:38;;;;;;;;;;;7.00;92.20;;;;;;5068197;28;19966;-73
2022/11/19 11:47:17;;;;;;;;;;;7.00;92.20;;;;;;5069005;28;19958;-73
2022/11/19 11:49:50;;;;;;;;;;;7.00;92.20;;;;;;5086778;28;19934;-73
2022/11/19 11:52:15;;;;;;;;;;;7.00;92.10;;;;;;5088991;28;19912;-74
2022/11/19 11:54:53;;;;;;;;;;;7.00;92.00;;;;;;5088741;28;19919;-73
2022/11/19 11:57:20;;;;;;;;;;;7.10;92.10;;;;;;5088822;28;20357;-72
2022/11/19 11:59:45;;;;;;;;;;;7.10;92.00;;;;;;5083884;28;20316;-73
2022/11/19 12:02:31;;;;;;;;;;;7.10;92.00;;;;;;5068628;28;19978;-72
2022/11/19 12:05:04;;;;;;;;;;;7.10;92.00;;;;;;5069016;28;19934;-72
2022/11/19 12:07:44;;;;;;;;;;;7.20;91.90;;;;;;5058159;28;19920;-71
2022/11/19 12:10:13;;;;;;;;;;;7.20;91.90;;;;;;5060944;28;19912;-71
2022/11/19 12:12:45;;;;;;;;;;;7.20;91.80;;;;;;5065650;28;19998;-72
2022/11/19 12:15:21;;;;;;;;;;;7.20;91.80;;;;;;5065559;28;19917;-73
2022/11/19 12:17:51;;;;;;;;;;;7.20;91.80;;;;;;5067011;28;20650;-72
2022/11/19 12:20:29;;;;;;;;;;;7.30;91.80;;;;;;5067457;28;19930;-71
2022/11/19 12:23:10;;;;;;;;;;;7.30;91.80;;;;;;5067576;28;19924;-72
2022/11/19 12:25:59;;;;;;;;;;;7.30;91.80;;;;;;5059674;28;19969;-72
2022/11/19 12:28:37;;;;;;;;;;;7.30;91.70;;;;;;5057114;28;19912;-72
2022/11/19 12:31:21;;;;;;;;;;;7.30;91.70;;;;;;5059106;28;19927;-72
2022/11/19 12:33:56;;;;;;;;;;;7.30;91.60;;;;;;5068008;28;19918;-72
2022/11/19 12:36:27;;;;;;;;;;;7.40;91.60;;;;;;5064156;28;20447;-72
2022/11/19 12:38:53;;;;;;;;;;;7.40;91.60;;;;;;5073765;28;19946;-72
2022/11/19 12:41:31;;;;;;;;;;;7.40;91.70;;;;;;5087242;28;19916;-72
2022/11/19 12:44:01;;;;;;;;;;;7.40;91.60;;;;;;5071872;28;19916;-72
2022/11/19 12:46:42;;;;;;;;;;;7.40;91.60;;;;;;5066650;28;19912;-72
2022/11/19 12:49:26;;;;;;;;;;;7.40;91.50;;;;;;5069430;28;20056;-72
2022/11/19 12:52:10;;;;;;;;;;;7.40;91.40;;;;;;5086986;28;19913;-72
2022/11/19 12:54:36;;;;;;;;;;;7.40;91.50;;;;;;5086194;28;19916;-72
2022/11/19 12:57:07;;;;;;;;;;;7.40;91.50;;;;;;5071994;28;19917;-72
2022/11/19 12:59:51;;;;;;;;;;;7.40;91.50;;;;;;5066309;28;19908;-72
2022/11/19 13:02:33;;;;;;;;;;;7.40;91.50;;;;;;5066661;28;20003;-72
2022/11/19 13:05:25;;;;;;;;;;;7.40;91.60;;;;;;5065194;28;20008;-72
2022/11/19 13:07:54;;;;;;;;;;;7.40;91.60;;;;;;5065049;28;19912;-72
2022/11/19 13:10:24;;;;;;;;;;;7.40;91.60;;;;;;5064764;28;20007;-72
2022/11/19 13:12:51;;;;;;;;;;;7.40;91.60;;;;;;5070725;28;19971;-72
2022/11/19 13:15:19;;;;;;;;;;;7.40;91.60;;;;;;5081613;28;20546;-72
2022/11/19 13:17:47;;;;;;;;;;;7.40;91.60;;;;;;5066851;28;19970;-72
2022/11/19 13:20:28;;;;;;;;;;;7.30;91.60;;;;;;5077167;28;19951;-72
2022/11/19 13:22:57;;;;;;;;;;;7.40;91.60;;;;;;5086278;28;19947;-72
2022/11/19 13:25:29;;;;;;;;;;;7.40;91.60;;;;;;5086292;28;19908;-72
2022/11/19 13:27:55;;;;;;;;;;;7.40;91.60;;;;;;5086104;28;19916;-72
2022/11/19 13:30:22;;;;;;;;;;;7.40;91.50;;;;;;5076332;28;19912;-72
2022/11/19 13:33:06;;;;;;;;;;;7.40;91.50;;;;;;5065459;28;19978;-72
2022/11/19 13:35:41;;;;;;;;;;;7.40;91.50;;;;;;5065150;28;19912;-72
2022/11/19 13:38:25;;;;;;;;;;;7.40;91.50;;;;;;5064072;28;19985;-72
2022/11/19 13:41:05;;;;;;;;;;;7.40;91.50;;;;;;5064999;28;19913;-72
2022/11/19 13:46:21;;;;;;;;;;;7.30;91.40;;;;;;5065428;28;19965;-72
2022/11/19 13:48:50;;;;;;;;;;;7.30;91.40;;;;;;5052401;28;19948;-72
2022/11/19 13:51:20;;;;;;;;;;;7.30;91.40;;;;;;5064548;28;19963;-72
2022/11/19 13:53:46;;;;;;;;;;;7.30;91.50;;;;;;5065684;28;19908;-72
2022/11/19 13:56:14;;;;;;;;;;;7.30;91.50;;;;;;5064558;28;19920;-72
2022/11/19 13:58:45;;;;;;;;;;;7.30;91.50;;;;;;5051142;28;20004;-72
2022/11/19 14:01:20;;;;;;;;;;;7.30;91.50;;;;;;5080513;28;19920;-72
2022/11/19 14:03:48;;;;;;;;;;;7.20;91.40;;;;;;5080146;28;20210;-72
2022/11/19 14:06:14;;;;;;;;;;;7.30;91.40;;;;;;5064925;28;20463;-72
2022/11/19 14:08:42;;;;;;;;;;;7.30;91.40;;;;;;5065449;28;19908;-72
2022/11/19 14:11:10;;;;;;;;;;;7.30;91.40;;;;;;5064858;28;19916;-72
2022/11/19 14:13:54;;;;;;;;;;;7.20;91.30;;;;;;5065446;28;20003;-72
2022/11/19 14:27:22;;;;;;;;;;;7.20;91.30;;;;;;5085534;28;19919;-72
2022/11/19 14:29:47;;;;;;;;;;;7.20;91.30;;;;;;5081258;28;19909;-72
2022/11/19 14:32:12;;;;;;;;;;;7.20;91.30;;;;;;5065142;28;19935;-72
2022/11/19 14:34:38;;;;;;;;;;;7.10;91.30;;;;;;5064737;28;20278;-72
2022/11/19 14:37:24;;;;;;;;;;;7.10;91.40;;;;;;5058384;28;20015;-72
2022/11/19 14:39:54;;;;;;;;;;;7.10;91.40;;;;;;5044533;28;19917;-73
2022/11/19 14:42:21;;;;;;;;;;;7.00;91.40;;;;;;5045295;28;19966;-72
2022/11/19 14:45:04;;;;;;;;;;;7.00;91.50;;;;;;5063730;28;19939;-73
2022/11/19 14:47:33;;;;;;;;;;;7.00;91.50;;;;;;5061931;28;19916;-72
2022/11/19 14:49:59;;;;;;;;;;;7.00;91.50;;;;;;5077942;28;19922;-72
2022/11/19 14:52:27;;;;;;;;;;;6.90;91.50;;;;;;5057774;28;19952;-72
2022/11/19 14:54:55;;;;;;;;;;;6.90;91.60;;;;;;5064787;28;19913;-72
2022/11/19 14:57:26;;;;;;;;;;;6.90;91.50;;;;;;5063761;28;20546;-72
2022/11/19 14:59:54;;;;;;;;;;;6.90;91.60;;;;;;5062593;28;19912;-72
2022/11/19 15:02:24;;;;;;;;;;;6.80;91.50;;;;;;5064654;28;19927;-72
2022/11/19 15:04:55;;;;;;;;;;;6.80;91.50;;;;;;5064437;28;19920;-72
2022/11/19 15:07:40;;;;;;;;;;;6.80;91.80;;;;;;5077060;28;19916;-72
2022/11/19 15:10:08;;;;;;;;;;;6.70;91.50;;;;;;5064342;28;19924;-72
2022/11/19 15:12:42;;;;;;;;;;;6.70;91.50;;;;;;5064569;28;19925;-72
2022/11/19 15:15:20;;;;;;;;;;;6.70;91.50;;;;;;5067470;28;19909;-72
2022/11/19 15:17:58;;;;;;;;;;;6.60;91.50;;;;;;5068100;28;19978;-72
2022/11/19 15:20:32;;;;;;;;;;;6.60;91.60;;;;;;5081366;28;19919;-71